Time;durP1;ratioP1;P1;durP2;ratioP2;P2;SDS_P1;SDS_P2;PMS_P1;PMS_P2;Temp;Humidity;BMP_temperature;BMP_pressure;BME280_temperature;BME280_humidity;BME280_pressure;Samples;Min_cycle;Max_cycle;Signal;HPM_P1;HPM_P2
2023/05/01 00:00:59;;;;;;;7.50;3.00;;;;;;;;;;5055199;28;20028;-65
2023/05/01 00:03:25;;;;;;;5.50;3.05;;;;;;;;;;5090896;28;20093;-66
2023/05/01 00:05:50;;;;;;;7.22;3.25;;;;;;;;;;5089778;28;20471;-66
2023/05/01 00:08:15;;;;;;;7.50;3.47;;;;;;;;;;5091118;28;20035;-66
2023/05/01 00:10:40;;;;;;;7.22;2.55;;;;;;;;;;5090185;28;20380;-66
2023/05/01 00:13:06;;;;;;;6.60;2.80;;;;;;;;;;5090711;28;20107;-66
2023/05/01 00:15:32;;;;;;;7.05;2.67;;;;;;;;;;5090328;28;20478;-66
2023/05/01 00:17:57;;;;;;;6.15;2.95;;;;;;;;;;5090793;28;20390;-66
2023/05/01 00:20:27;;;;;;;6.78;2.45;;;;;;;;;;5090453;28;20081;-66
2023/05/01 00:22:52;;;;;;;8.07;2.35;;;;;;;;;;5091286;28;20031;-66
2023/05/01 00:25:17;;;;;;;5.18;2.30;;;;;;;;;;5089990;28;20020;-66
2023/05/01 00:27:43;;;;;;;7.13;3.05;;;;;;;;;;5090089;28;20694;-66
2023/05/01 00:30:08;;;;;;;10.73;3.10;;;;;;;;;;5089048;28;20379;-65
2023/05/01 00:32:34;;;;;;;6.45;2.63;;;;;;;;;;5090316;28;20030;-65
2023/05/01 00:34:59;;;;;;;4.53;2.45;;;;;;;;;;5090651;28;20054;-66
2023/05/01 00:37:25;;;;;;;5.35;3.00;;;;;;;;;;5090483;28;20066;-65
2023/05/01 00:39:50;;;;;;;3.28;2.20;;;;;;;;;;5079961;28;20025;-66
2023/05/01 00:42:15;;;;;;;4.07;2.60;;;;;;;;;;5089485;28;20028;-65
2023/05/01 00:44:40;;;;;;;11.82;2.90;;;;;;;;;;5090581;28;20028;-66
2023/05/01 00:47:06;;;;;;;5.82;2.92;;;;;;;;;;5090098;28;20073;-65
2023/05/01 00:49:31;;;;;;;6.55;2.95;;;;;;;;;;5090049;28;20572;-66
2023/05/01 00:51:57;;;;;;;4.90;2.53;;;;;;;;;;5089654;28;20099;-66
2023/05/01 00:54:24;;;;;;;6.22;3.03;;;;;;;;;;5090190;28;20058;-66
2023/05/01 00:56:49;;;;;;;6.32;2.40;;;;;;;;;;5089951;28;20032;-66
2023/05/01 00:59:15;;;;;;;5.20;2.65;;;;;;;;;;5089439;28;20038;-66
2023/05/01 01:01:40;;;;;;;4.45;2.75;;;;;;;;;;5090867;28;20032;-66
2023/05/01 01:04:06;;;;;;;5.25;2.63;;;;;;;;;;5088382;28;20028;-66
2023/05/01 01:06:58;;;;;;;8.02;2.83;;;;;;;;;;5093136;28;20091;-66
2023/05/01 01:09:42;;;;;;;6.25;2.85;;;;;;;;;;5088426;28;20028;-66
2023/05/01 01:12:07;;;;;;;6.50;2.70;;;;;;;;;;5093161;28;20024;-66
2023/05/01 01:14:44;;;;;;;5.10;2.47;;;;;;;;;;5093632;28;20050;-66
2023/05/01 01:17:15;;;;;;;4.63;2.53;;;;;;;;;;5093195;28;20032;-66
2023/05/01 01:19:43;;;;;;;4.53;2.20;;;;;;;;;;5093768;28;20066;-66
2023/05/01 01:22:14;;;;;;;9.23;2.90;;;;;;;;;;5092557;28;20031;-66
2023/05/01 01:24:43;;;;;;;5.72;2.47;;;;;;;;;;5093306;28;20028;-66
2023/05/01 01:27:27;;;;;;;5.30;2.97;;;;;;;;;;5085729;28;20483;-66
2023/05/01 01:30:05;;;;;;;6.78;2.90;;;;;;;;;;5089488;28;20024;-66
2023/05/01 01:32:31;;;;;;;4.63;2.50;;;;;;;;;;5092152;28;20020;-66
2023/05/01 01:35:02;;;;;;;6.20;2.67;;;;;;;;;;5092620;28;20032;-66
2023/05/01 01:37:45;;;;;;;6.20;2.80;;;;;;;;;;5092925;28;20008;-66
2023/05/01 01:40:12;;;;;;;4.97;2.85;;;;;;;;;;5093227;28;20481;-66
2023/05/01 01:42:47;;;;;;;4.28;2.63;;;;;;;;;;5092804;28;20035;-66
2023/05/01 01:45:24;;;;;;;7.10;3.08;;;;;;;;;;5093338;28;20035;-66
2023/05/01 01:47:50;;;;;;;6.65;2.95;;;;;;;;;;5092701;28;20028;-66
2023/05/01 01:50:17;;;;;;;8.45;3.45;;;;;;;;;;5092423;28;20039;-66
2023/05/01 01:52:44;;;;;;;6.28;2.47;;;;;;;;;;5092506;28;20028;-66
2023/05/01 01:55:11;;;;;;;5.38;2.95;;;;;;;;;;5055672;28;20382;-66
2023/05/01 01:57:38;;;;;;;5.05;2.60;;;;;;;;;;5086577;28;20054;-66
2023/05/01 02:00:07;;;;;;;6.22;2.72;;;;;;;;;;5092528;28;20466;-66
2023/05/01 02:02:34;;;;;;;7.07;3.13;;;;;;;;;;5092087;28;20028;-66
2023/05/01 02:05:00;;;;;;;7.72;2.88;;;;;;;;;;5093201;28;20070;-66
2023/05/01 02:07:27;;;;;;;8.02;3.25;;;;;;;;;;5092555;28;20063;-66
2023/05/01 02:09:53;;;;;;;7.40;2.70;;;;;;;;;;5092820;28;20406;-66
2023/05/01 02:12:18;;;;;;;5.55;3.10;;;;;;;;;;5091714;28;20024;-66
2023/05/01 02:14:44;;;;;;;7.03;2.53;;;;;;;;;;5092060;28;20022;-66
2023/05/01 02:17:10;;;;;;;5.82;2.90;;;;;;;;;;5089419;28;20024;-66
2023/05/01 02:19:38;;;;;;;8.32;3.17;;;;;;;;;;5072663;28;20016;-66
2023/05/01 02:22:04;;;;;;;7.70;3.17;;;;;;;;;;5089041;28;20032;-66
2023/05/01 02:24:29;;;;;;;4.55;2.80;;;;;;;;;;5092130;28;20493;-66
2023/05/01 02:27:05;;;;;;;7.78;3.00;;;;;;;;;;5092275;28;20028;-67
2023/05/01 02:29:30;;;;;;;8.55;3.47;;;;;;;;;;5091977;28;20058;-66
2023/05/01 02:31:55;;;;;;;8.85;3.20;;;;;;;;;;5091884;28;20382;-66
2023/05/01 02:34:21;;;;;;;8.45;3.30;;;;;;;;;;5092678;28;20024;-66
2023/05/01 02:36:46;;;;;;;7.82;2.50;;;;;;;;;;5091943;28;20041;-66
2023/05/01 02:39:12;;;;;;;12.48;3.47;;;;;;;;;;5092620;28;20034;-66
2023/05/01 02:41:38;;;;;;;5.30;2.60;;;;;;;;;;5092009;28;20016;-66
2023/05/01 02:44:04;;;;;;;5.43;3.00;;;;;;;;;;5091507;28;20038;-66
2023/05/01 02:46:31;;;;;;;5.05;2.83;;;;;;;;;;5092433;28;20027;-66
2023/05/01 02:48:59;;;;;;;5.28;2.95;;;;;;;;;;5091762;28;20024;-66
2023/05/01 02:51:26;;;;;;;5.55;2.70;;;;;;;;;;5091800;28;20020;-66
2023/05/01 02:53:52;;;;;;;3.70;2.42;;;;;;;;;;5091269;28;20385;-66
2023/05/01 02:56:17;;;;;;;6.25;2.47;;;;;;;;;;5073417;28;20012;-66
2023/05/01 02:58:43;;;;;;;5.32;2.63;;;;;;;;;;5091817;28;20016;-66
2023/05/01 03:01:09;;;;;;;5.65;2.70;;;;;;;;;;5091238;28;20034;-66
2023/05/01 03:03:35;;;;;;;8.43;2.70;;;;;;;;;;5091224;28;20075;-66
2023/05/01 03:06:00;;;;;;;6.38;3.08;;;;;;;;;;5091786;28;20056;-66
2023/05/01 03:08:26;;;;;;;10.70;3.47;;;;;;;;;;5091596;28;20048;-66
2023/05/01 03:10:52;;;;;;;19.88;2.72;;;;;;;;;;5091724;28;20062;-66
2023/05/01 03:13:17;;;;;;;6.18;3.30;;;;;;;;;;5091388;28;20020;-66
2023/05/01 03:15:43;;;;;;;6.13;3.07;;;;;;;;;;5090992;28;20028;-66
2023/05/01 03:18:08;;;;;;;6.00;3.15;;;;;;;;;;5091317;28;20372;-66
2023/05/01 03:20:33;;;;;;;4.55;2.63;;;;;;;;;;5091631;28;20032;-66
2023/05/01 03:22:59;;;;;;;6.10;2.92;;;;;;;;;;5091462;28;20023;-66
2023/05/01 03:25:24;;;;;;;5.13;3.25;;;;;;;;;;5089703;28;20034;-65
2023/05/01 03:27:49;;;;;;;7.90;3.13;;;;;;;;;;5091228;28;20150;-66
2023/05/01 03:30:14;;;;;;;5.70;3.08;;;;;;;;;;5077639;28;20032;-66
2023/05/01 03:32:40;;;;;;;6.20;3.50;;;;;;;;;;5091308;28;20119;-66
2023/05/01 03:35:06;;;;;;;6.40;3.63;;;;;;;;;;5091593;28;20024;-66
2023/05/01 03:37:32;;;;;;;6.65;3.55;;;;;;;;;;5091114;28;20016;-66
2023/05/01 03:39:58;;;;;;;6.00;2.88;;;;;;;;;;5089835;28;20561;-66
2023/05/01 03:42:23;;;;;;;6.57;3.45;;;;;;;;;;5089822;28;20016;-66
2023/05/01 03:44:48;;;;;;;5.82;2.95;;;;;;;;;;5089239;28;20348;-66
2023/05/01 03:47:14;;;;;;;5.25;2.92;;;;;;;;;;5091780;28;20433;-66
2023/05/01 03:49:42;;;;;;;6.88;3.35;;;;;;;;;;5089593;28;20021;-66
2023/05/01 03:52:07;;;;;;;7.57;3.47;;;;;;;;;;5091341;28;20024;-66
2023/05/01 03:54:33;;;;;;;5.93;3.08;;;;;;;;;;5089052;28;20026;-66
2023/05/01 03:56:59;;;;;;;6.85;3.63;;;;;;;;;;5080156;28;20024;-66
2023/05/01 03:59:24;;;;;;;5.85;3.28;;;;;;;;;;5077672;28;20027;-66
2023/05/01 04:01:49;;;;;;;4.53;2.80;;;;;;;;;;5079686;28;20054;-66
2023/05/01 04:04:15;;;;;;;4.22;2.58;;;;;;;;;;5089634;28;20662;-65
2023/05/01 04:06:40;;;;;;;5.35;3.15;;;;;;;;;;5090774;28;20042;-66
2023/05/01 04:09:07;;;;;;;4.65;2.80;;;;;;;;;;5090977;28;20078;-66
2023/05/01 04:11:32;;;;;;;6.70;3.00;;;;;;;;;;5086533;28;20141;-66
2023/05/01 04:13:57;;;;;;;12.77;3.55;;;;;;;;;;5090935;28;20492;-66
2023/05/01 04:16:23;;;;;;;5.47;2.60;;;;;;;;;;5085657;28;20495;-66
2023/05/01 04:18:48;;;;;;;5.00;2.78;;;;;;;;;;5084872;28;20024;-66
2023/05/01 04:21:16;;;;;;;7.80;2.75;;;;;;;;;;5091118;28;20023;-66
2023/05/01 04:23:41;;;;;;;4.70;3.17;;;;;;;;;;5088790;28;20031;-66
2023/05/01 04:26:07;;;;;;;7.22;3.15;;;;;;;;;;5090262;28;20032;-66
2023/05/01 04:28:32;;;;;;;5.40;2.85;;;;;;;;;;5090098;28;20020;-66
2023/05/01 04:30:57;;;;;;;8.07;2.30;;;;;;;;;;5089941;28;20066;-66
2023/05/01 04:33:22;;;;;;;5.53;2.92;;;;;;;;;;5076793;28;20028;-66
2023/05/01 04:35:48;;;;;;;6.15;2.78;;;;;;;;;;5084522;28;20115;-66
2023/05/01 04:38:13;;;;;;;7.88;3.05;;;;;;;;;;5090059;28;20055;-66
2023/05/01 04:40:38;;;;;;;5.13;2.58;;;;;;;;;;5085505;28;20065;-66
2023/05/01 04:43:04;;;;;;;4.43;2.53;;;;;;;;;;5089170;28;20032;-66
2023/05/01 04:45:29;;;;;;;5.47;2.85;;;;;;;;;;5093722;28;20024;-66
2023/05/01 04:47:54;;;;;;;6.50;3.05;;;;;;;;;;5094343;28;20028;-66
2023/05/01 04:50:20;;;;;;;10.48;3.63;;;;;;;;;;5086163;28;20065;-66
2023/05/01 04:52:45;;;;;;;4.78;2.78;;;;;;;;;;5093887;28;20039;-66
2023/05/01 04:55:10;;;;;;;5.22;2.50;;;;;;;;;;5093832;28;20115;-66
2023/05/01 04:57:35;;;;;;;5.28;2.58;;;;;;;;;;5093365;28;20421;-66
2023/05/01 05:00:02;;;;;;;8.30;2.95;;;;;;;;;;5088025;28;20029;-66
2023/05/01 05:02:27;;;;;;;5.22;2.50;;;;;;;;;;5093153;28;20032;-66
2023/05/01 05:04:53;;;;;;;8.55;3.20;;;;;;;;;;5093201;28;20032;-66
2023/05/01 05:07:18;;;;;;;4.80;2.53;;;;;;;;;;5093689;28;20031;-66
2023/05/01 05:09:43;;;;;;;6.40;2.67;;;;;;;;;;5085904;28;20043;-66
2023/05/01 05:12:09;;;;;;;6.55;2.90;;;;;;;;;;5091292;28;20027;-66
2023/05/01 05:14:34;;;;;;;6.53;3.05;;;;;;;;;;5093403;28;20474;-66
2023/05/01 05:16:59;;;;;;;4.93;2.65;;;;;;;;;;5092481;28;20024;-65
2023/05/01 05:19:25;;;;;;;5.85;3.20;;;;;;;;;;5092409;28;20028;-65
2023/05/01 05:21:50;;;;;;;7.93;2.75;;;;;;;;;;5092999;28;20020;-65
2023/05/01 05:24:15;;;;;;;3.92;2.42;;;;;;;;;;5089228;28;20035;-65
2023/05/01 05:26:40;;;;;;;4.43;2.55;;;;;;;;;;5083567;28;20024;-65
2023/05/01 05:29:06;;;;;;;5.10;2.30;;;;;;;;;;5093407;28;20512;-65
2023/05/01 05:31:31;;;;;;;4.85;2.55;;;;;;;;;;5088984;28;20422;-65
2023/05/01 05:33:56;;;;;;;7.50;2.97;;;;;;;;;;5083096;28;20046;-65
2023/05/01 05:36:22;;;;;;;6.75;2.90;;;;;;;;;;5089336;28;20028;-65
2023/05/01 05:38:47;;;;;;;6.15;2.80;;;;;;;;;;5092297;28;20032;-66
2023/05/01 05:41:12;;;;;;;4.40;2.55;;;;;;;;;;5092940;28;20488;-66
2023/05/01 05:43:37;;;;;;;4.30;2.53;;;;;;;;;;5092244;28;20068;-66
2023/05/01 05:46:03;;;;;;;4.57;2.97;;;;;;;;;;5089809;28;20024;-65
2023/05/01 05:48:28;;;;;;;10.63;3.40;;;;;;;;;;5092266;28;20028;-65
2023/05/01 05:50:53;;;;;;;5.85;3.55;;;;;;;;;;5092423;28;20040;-65
2023/05/01 05:53:19;;;;;;;6.97;3.35;;;;;;;;;;5091715;28;20027;-66
2023/05/01 05:55:47;;;;;;;9.20;3.03;;;;;;;;;;5091995;28;20016;-65
2023/05/01 05:58:18;;;;;;;5.57;3.25;;;;;;;;;;5092609;28;20146;-65
2023/05/01 06:00:48;;;;;;;5.05;2.70;;;;;;;;;;5063890;28;20157;-65
2023/05/01 06:03:13;;;;;;;7.25;3.78;;;;;;;;;;5051162;28;20149;-65
2023/05/01 06:05:39;;;;;;;4.18;2.70;;;;;;;;;;5039924;28;20855;-66
2023/05/01 06:08:04;;;;;;;5.82;3.10;;;;;;;;;;5040846;28;20549;-65
2023/05/01 06:10:29;;;;;;;4.10;2.42;;;;;;;;;;5044367;28;20815;-66
2023/05/01 06:12:55;;;;;;;5.50;2.47;;;;;;;;;;5047179;28;20055;-65
2023/05/01 06:15:20;;;;;;;5.18;2.97;;;;;;;;;;5040802;28;20028;-66
2023/05/01 06:17:46;;;;;;;9.63;2.72;;;;;;;;;;5035663;28;20024;-65
2023/05/01 06:20:12;;;;;;;5.10;3.25;;;;;;;;;;5055953;28;20027;-65
2023/05/01 06:22:38;;;;;;;4.68;2.67;;;;;;;;;;5049735;28;20796;-65
2023/05/01 06:25:05;;;;;;;5.30;2.97;;;;;;;;;;5044276;28;20060;-65
2023/05/01 06:27:30;;;;;;;3.90;2.38;;;;;;;;;;5043186;28;20098;-65
2023/05/01 06:29:55;;;;;;;5.95;3.55;;;;;;;;;;5046390;28;20028;-66
2023/05/01 06:32:22;;;;;;;12.10;2.83;;;;;;;;;;5046417;28;20083;-65
2023/05/01 06:34:47;;;;;;;5.72;3.00;;;;;;;;;;5026552;28;20117;-65
2023/05/01 06:37:12;;;;;;;5.22;3.08;;;;;;;;;;5041053;28;20021;-65
2023/05/01 06:39:38;;;;;;;6.10;3.40;;;;;;;;;;5028383;28;20127;-65
2023/05/01 06:42:03;;;;;;;3.47;2.47;;;;;;;;;;5042389;28;20852;-65
2023/05/01 06:44:28;;;;;;;5.55;3.05;;;;;;;;;;5044378;28;20051;-65
2023/05/01 06:46:55;;;;;;;5.95;3.45;;;;;;;;;;5045191;28;20077;-65
2023/05/01 06:49:21;;;;;;;5.53;3.55;;;;;;;;;;5046523;28;20016;-65
2023/05/01 06:51:46;;;;;;;4.85;2.92;;;;;;;;;;5044468;28;20077;-66
2023/05/01 06:54:11;;;;;;;5.68;3.63;;;;;;;;;;5041213;28;20044;-65
2023/05/01 06:56:36;;;;;;;7.55;3.67;;;;;;;;;;5044443;28;20907;-66
2023/05/01 06:59:02;;;;;;;5.05;3.28;;;;;;;;;;5043896;28;20108;-66
2023/05/01 07:01:28;;;;;;;5.00;3.13;;;;;;;;;;5044555;28;20140;-65
2023/05/01 07:03:53;;;;;;;7.05;3.70;;;;;;;;;;5044218;28;20067;-65
2023/05/01 07:06:18;;;;;;;8.88;4.35;;;;;;;;;;5044216;28;20869;-65
2023/05/01 07:08:44;;;;;;;6.80;3.75;;;;;;;;;;5039550;28;20082;-66
2023/05/01 07:11:09;;;;;;;5.28;3.78;;;;;;;;;;5038410;28;20028;-65
2023/05/01 07:13:34;;;;;;;6.53;4.03;;;;;;;;;;5045874;28;20024;-66
2023/05/01 07:16:01;;;;;;;5.13;3.75;;;;;;;;;;5043916;28;20135;-66
2023/05/01 07:18:26;;;;;;;7.20;4.47;;;;;;;;;;5038315;28;20081;-65
2023/05/01 07:20:51;;;;;;;6.95;4.38;;;;;;;;;;5044940;28;20031;-66
2023/05/01 07:23:17;;;;;;;6.00;4.35;;;;;;;;;;5033966;28;20894;-66
2023/05/01 07:25:44;;;;;;;7.93;4.45;;;;;;;;;;5044658;28;20132;-65
2023/05/01 07:28:09;;;;;;;7.20;4.30;;;;;;;;;;5043820;28;20051;-66
2023/05/01 07:30:35;;;;;;;6.82;4.22;;;;;;;;;;5046265;28;20036;-66
2023/05/01 07:33:00;;;;;;;18.52;4.43;;;;;;;;;;5042912;28;20035;-66
2023/05/01 07:35:26;;;;;;;9.40;4.82;;;;;;;;;;5044813;28;20042;-65
2023/05/01 07:37:51;;;;;;;8.95;4.40;;;;;;;;;;5044722;28;20085;-65
2023/05/01 07:40:17;;;;;;;5.57;4.22;;;;;;;;;;5043056;28;20135;-66
2023/05/01 07:42:42;;;;;;;8.88;4.57;;;;;;;;;;5034562;28;20978;-65
2023/05/01 07:45:08;;;;;;;6.85;4.78;;;;;;;;;;5034092;28;20020;-65
2023/05/01 07:47:33;;;;;;;6.00;4.47;;;;;;;;;;5042054;28;20019;-65
2023/05/01 07:49:59;;;;;;;13.98;5.45;;;;;;;;;;5036294;28;20050;-65
2023/05/01 07:52:25;;;;;;;8.05;5.40;;;;;;;;;;5044582;28;20024;-65
2023/05/01 07:54:50;;;;;;;7.38;4.85;;;;;;;;;;5045225;28;20058;-64
2023/05/01 07:57:15;;;;;;;14.30;5.85;;;;;;;;;;5045786;28;20024;-65
2023/05/01 07:59:41;;;;;;;7.22;4.55;;;;;;;;;;5044080;28;20020;-65
2023/05/01 08:02:06;;;;;;;7.35;4.05;;;;;;;;;;5044214;28;20055;-65
2023/05/01 08:04:31;;;;;;;8.48;4.93;;;;;;;;;;5036554;28;20056;-65
2023/05/01 08:06:56;;;;;;;9.90;5.05;;;;;;;;;;5044410;28;20051;-65
2023/05/01 08:09:22;;;;;;;11.10;6.00;;;;;;;;;;5042500;28;20140;-65
2023/05/01 08:11:47;;;;;;;10.48;5.18;;;;;;;;;;5046029;28;20028;-65
2023/05/01 08:14:12;;;;;;;8.45;5.13;;;;;;;;;;5046028;28;20127;-65
2023/05/01 08:16:37;;;;;;;7.57;5.30;;;;;;;;;;5054707;28;21041;-65
2023/05/01 08:19:03;;;;;;;7.65;4.97;;;;;;;;;;5048000;28;20621;-65
2023/05/01 08:21:28;;;;;;;8.70;5.00;;;;;;;;;;5054193;28;20032;-65
2023/05/01 08:23:54;;;;;;;8.80;5.45;;;;;;;;;;5048219;28;20801;-65
2023/05/01 08:26:20;;;;;;;5.85;5.00;;;;;;;;;;5039780;28;20026;-66
2023/05/01 08:28:45;;;;;;;9.43;5.53;;;;;;;;;;5048252;28;20212;-68
2023/05/01 08:31:10;;;;;;;9.48;6.30;;;;;;;;;;5055780;28;20043;-67
2023/05/01 08:33:36;;;;;;;12.27;6.20;;;;;;;;;;5056289;28;20020;-66
2023/05/01 08:36:01;;;;;;;8.20;5.70;;;;;;;;;;5055063;28;20269;-66
2023/05/01 08:38:26;;;;;;;9.65;5.88;;;;;;;;;;5036893;28;20027;-67
2023/05/01 08:40:52;;;;;;;10.00;5.57;;;;;;;;;;5072167;28;20066;-66
2023/05/01 08:43:18;;;;;;;10.02;5.88;;;;;;;;;;5094035;28;20042;-68
2023/05/01 08:45:44;;;;;;;6.85;5.25;;;;;;;;;;5094086;28;20024;-65
2023/05/01 08:48:11;;;;;;;6.32;5.13;;;;;;;;;;5093624;28;20066;-65
2023/05/01 08:50:37;;;;;;;10.45;5.82;;;;;;;;;;5088991;28;20023;-68
2023/05/01 08:53:03;;;;;;;7.93;5.95;;;;;;;;;;5073890;28;20057;-67
2023/05/01 08:55:29;;;;;;;10.25;7.00;;;;;;;;;;5056008;28;20063;-67
2023/05/01 08:57:56;;;;;;;9.35;6.15;;;;;;;;;;5056464;28;20032;-69
2023/05/01 09:00:21;;;;;;;9.32;6.55;;;;;;;;;;5052451;28;20063;-65
2023/05/01 09:02:48;;;;;;;8.27;6.10;;;;;;;;;;5045938;28;20813;-64
2023/05/01 09:05:14;;;;;;;8.02;5.45;;;;;;;;;;5040746;28;20035;-65
2023/05/01 09:07:41;;;;;;;7.78;6.28;;;;;;;;;;5046668;28;20021;-65
2023/05/01 09:10:06;;;;;;;11.02;5.82;;;;;;;;;;5046183;28;20028;-64
2023/05/01 09:12:34;;;;;;;9.55;6.35;;;;;;;;;;5047374;28;20128;-65
2023/05/01 09:15:00;;;;;;;8.52;6.10;;;;;;;;;;5046978;28;20889;-64
2023/05/01 09:17:26;;;;;;;8.43;6.20;;;;;;;;;;5046555;28;20081;-65
2023/05/01 09:19:52;;;;;;;9.85;6.43;;;;;;;;;;5047536;28;20028;-65
2023/05/01 09:22:17;;;;;;;6.75;5.35;;;;;;;;;;5042939;28;20127;-65
2023/05/01 09:24:43;;;;;;;9.65;6.32;;;;;;;;;;5046665;28;20036;-65
2023/05/01 09:27:08;;;;;;;8.50;5.97;;;;;;;;;;5035806;28;20542;-65
2023/05/01 09:29:41;;;;;;;7.45;5.22;;;;;;;;;;5048874;28;20028;-65
2023/05/01 09:32:13;;;;;;;8.13;5.55;;;;;;;;;;5028711;28;20138;-65
2023/05/01 09:34:39;;;;;;;8.75;5.05;;;;;;;;;;5044619;28;21457;-64
2023/05/01 09:37:05;;;;;;;7.80;5.28;;;;;;;;;;5046595;28;20028;-65
2023/05/01 09:39:30;;;;;;;9.05;5.20;;;;;;;;;;5040617;28;20028;-66
2023/05/01 09:41:55;;;;;;;7.15;4.63;;;;;;;;;;5033351;28;20032;-66
2023/05/01 09:44:21;;;;;;;5.65;4.00;;;;;;;;;;5043940;28;20139;-67
2023/05/01 09:46:48;;;;;;;8.93;5.22;;;;;;;;;;5046033;28;20807;-66
2023/05/01 09:49:14;;;;;;;5.95;4.47;;;;;;;;;;5035781;28;20215;-67
2023/05/01 09:51:40;;;;;;;5.95;4.25;;;;;;;;;;5047271;28;20049;-67
2023/05/01 09:54:15;;;;;;;10.70;5.75;;;;;;;;;;5046333;28;20852;-66
2023/05/01 09:56:45;;;;;;;6.22;4.35;;;;;;;;;;5044627;28;20020;-66
2023/05/01 09:59:15;;;;;;;5.43;3.70;;;;;;;;;;5046283;28;20127;-65
2023/05/01 10:01:41;;;;;;;7.82;3.88;;;;;;;;;;5049401;28;20019;-65
2023/05/01 10:04:08;;;;;;;7.60;4.47;;;;;;;;;;5052738;28;20039;-65
2023/05/01 10:06:33;;;;;;;7.28;5.00;;;;;;;;;;5049489;28;20012;-63
2023/05/01 10:09:00;;;;;;;9.02;5.03;;;;;;;;;;5051380;28;20047;-65
2023/05/01 10:11:26;;;;;;;7.03;4.18;;;;;;;;;;5054139;28;20099;-66
2023/05/01 10:14:09;;;;;;;10.32;4.90;;;;;;;;;;5042406;28;20093;-66
2023/05/01 10:16:36;;;;;;;5.77;4.30;;;;;;;;;;5051833;28;20016;-65
2023/05/01 10:19:02;;;;;;;12.18;4.80;;;;;;;;;;5064299;28;20093;-65
2023/05/01 10:21:27;;;;;;;6.53;4.68;;;;;;;;;;5062936;28;20587;-66
2023/05/01 10:23:54;;;;;;;6.47;4.45;;;;;;;;;;5069284;28;20028;-65
2023/05/01 10:26:19;;;;;;;7.47;4.65;;;;;;;;;;5070390;28;20055;-65
2023/05/01 10:28:46;;;;;;;7.43;4.95;;;;;;;;;;5064732;28;20035;-66
2023/05/01 10:31:11;;;;;;;6.45;4.55;;;;;;;;;;5063639;28;20914;-65
2023/05/01 10:33:38;;;;;;;7.32;5.18;;;;;;;;;;5064395;28;20034;-65
2023/05/01 10:36:05;;;;;;;6.35;4.57;;;;;;;;;;5064434;28;20024;-66
2023/05/01 10:38:35;;;;;;;11.05;3.50;;;;;;;;;;5086564;28;20569;-66
2023/05/01 10:41:00;;;;;;;9.88;4.13;;;;;;;;;;5083948;28;20658;-66
2023/05/01 10:43:27;;;;;;;10.00;5.23;;;;;;;;;;5091023;28;20020;-66
2023/05/01 10:46:11;;;;;;;6.57;5.03;;;;;;;;;;5091684;28;20297;-66
2023/05/01 10:48:36;;;;;;;8.20;5.05;;;;;;;;;;5086949;28;20024;-66
2023/05/01 10:51:12;;;;;;;10.63;4.93;;;;;;;;;;5091061;28;20366;-66
2023/05/01 10:53:38;;;;;;;7.90;4.95;;;;;;;;;;5054236;28;20276;-66
2023/05/01 10:56:06;;;;;;;6.78;5.15;;;;;;;;;;5085224;28;20024;-66
2023/05/01 10:58:37;;;;;;;8.98;4.95;;;;;;;;;;5078458;28;20095;-65
2023/05/01 11:01:21;;;;;;;6.53;4.68;;;;;;;;;;5091403;28;20042;-66
2023/05/01 11:03:46;;;;;;;8.27;4.50;;;;;;;;;;5091257;28;20493;-65
2023/05/01 11:06:12;;;;;;;9.77;4.57;;;;;;;;;;5087732;28;20016;-65
2023/05/01 11:08:37;;;;;;;7.72;5.28;;;;;;;;;;5091662;28;20748;-66
2023/05/01 11:11:21;;;;;;;8.82;5.53;;;;;;;;;;5091885;28;20031;-66
2023/05/01 11:13:59;;;;;;;8.80;4.70;;;;;;;;;;5086030;28;20237;-66
2023/05/01 11:16:37;;;;;;;9.45;4.57;;;;;;;;;;5040289;28;20036;-64
2023/05/01 11:19:23;;;;;;;4.70;3.55;;;;;;;;;;5081418;28;20028;-66
2023/05/01 11:21:49;;;;;;;6.15;3.95;;;;;;;;;;5072794;28;20127;-66
2023/05/01 11:24:16;;;;;;;6.38;4.07;;;;;;;;;;5091218;28;20105;-66
2023/05/01 11:26:42;;;;;;;4.72;3.75;;;;;;;;;;5091229;28;20016;-66
2023/05/01 11:29:10;;;;;;;7.00;4.65;;;;;;;;;;5091569;28;20031;-66
2023/05/01 11:31:36;;;;;;;9.55;5.43;;;;;;;;;;5090695;28;20022;-66
2023/05/01 11:34:02;;;;;;;5.70;3.65;;;;;;;;;;5091203;28;20020;-66
2023/05/01 11:36:28;;;;;;;5.28;3.75;;;;;;;;;;5088404;28;20043;-65
2023/05/01 11:38:57;;;;;;;11.27;4.03;;;;;;;;;;5086597;28;20131;-66
2023/05/01 11:41:23;;;;;;;4.22;3.15;;;;;;;;;;5090933;28;20489;-66
2023/05/01 11:43:53;;;;;;;4.10;3.33;;;;;;;;;;5054092;28;20028;-66
2023/05/01 11:46:27;;;;;;;8.38;3.63;;;;;;;;;;5049290;28;20128;-66
2023/05/01 11:48:53;;;;;;;4.90;3.15;;;;;;;;;;5073782;28;20024;-66
2023/05/01 11:51:18;;;;;;;5.63;3.72;;;;;;;;;;5091180;28;20027;-67
2023/05/01 11:53:59;;;;;;;8.65;3.88;;;;;;;;;;5090568;28;20095;-66
2023/05/01 11:56:25;;;;;;;8.75;5.18;;;;;;;;;;5082716;28;20545;-67
2023/05/01 11:58:50;;;;;;;7.32;4.80;;;;;;;;;;5090478;28;20024;-67
2023/05/01 12:01:16;;;;;;;10.88;5.72;;;;;;;;;;5081132;28;20089;-66
2023/05/01 12:03:42;;;;;;;10.88;6.28;;;;;;;;;;5026015;28;21160;-66
2023/05/01 12:06:08;;;;;;;9.85;5.35;;;;;;;;;;5040315;28;20040;-66
2023/05/01 12:08:34;;;;;;;8.13;5.65;;;;;;;;;;5039889;28;20020;-66
2023/05/01 12:10:59;;;;;;;8.73;4.88;;;;;;;;;;5046010;28;20024;-64
2023/05/01 12:13:25;;;;;;;8.70;4.65;;;;;;;;;;5048328;28;20221;-64
2023/05/01 12:15:52;;;;;;;7.35;4.38;;;;;;;;;;5088406;28;20390;-65
2023/05/01 12:18:18;;;;;;;11.30;4.20;;;;;;;;;;5090865;28;20378;-65
2023/05/01 12:20:44;;;;;;;7.38;5.05;;;;;;;;;;5090540;28;20042;-65
2023/05/01 12:23:14;;;;;;;7.80;4.88;;;;;;;;;;5090073;28;20021;-65
2023/05/01 12:25:41;;;;;;;9.93;5.40;;;;;;;;;;5067919;28;20052;-67
2023/05/01 12:28:14;;;;;;;8.05;4.80;;;;;;;;;;5089270;28;20028;-64
2023/05/01 12:30:40;;;;;;;7.80;5.15;;;;;;;;;;5090888;28;20032;-65
2023/05/01 12:33:23;;;;;;;9.18;5.13;;;;;;;;;;5089026;28;20019;-66
2023/05/01 12:35:49;;;;;;;17.40;6.18;;;;;;;;;;5089441;28;20024;-67
2023/05/01 12:38:19;;;;;;;9.10;5.35;;;;;;;;;;5089648;28;20028;-66
2023/05/01 12:40:54;;;;;;;8.50;4.85;;;;;;;;;;5088952;28;20037;-67
2023/05/01 12:43:20;;;;;;;5.82;4.13;;;;;;;;;;5088098;28;20060;-66
2023/05/01 12:45:48;;;;;;;5.85;3.78;;;;;;;;;;5090468;28;20028;-66
2023/05/01 12:48:13;;;;;;;7.53;4.05;;;;;;;;;;5090534;28;20095;-66
2023/05/01 12:50:39;;;;;;;6.55;5.00;;;;;;;;;;5083545;28;20479;-66
2023/05/01 12:53:05;;;;;;;7.28;4.75;;;;;;;;;;5088032;28;20099;-66
2023/05/01 12:55:34;;;;;;;7.93;4.95;;;;;;;;;;5088095;28;20016;-66
2023/05/01 12:58:00;;;;;;;12.68;6.00;;;;;;;;;;5091224;28;20708;-66
2023/05/01 13:00:25;;;;;;;8.95;6.72;;;;;;;;;;5092540;28;20027;-67
2023/05/01 13:02:50;;;;;;;9.32;6.57;;;;;;;;;;5093776;28;20024;-67
2023/05/01 13:05:16;;;;;;;10.73;7.18;;;;;;;;;;5081518;28;20040;-67
2023/05/01 13:07:46;;;;;;;11.95;7.55;;;;;;;;;;5092498;28;20024;-67
2023/05/01 13:10:12;;;;;;;9.93;8.05;;;;;;;;;;5084983;28;20032;-67
2023/05/01 13:12:43;;;;;;;14.50;8.48;;;;;;;;;;5063973;28;20125;-67
2023/05/01 13:15:17;;;;;;;12.68;7.85;;;;;;;;;;5044939;28;20024;-67
2023/05/01 13:17:43;;;;;;;;;;;;;;;;;;5092978;28;20023;-67
2023/05/01 13:20:09;;;;;;;10.30;8.15;;;;;;;;;;5093644;28;19908;-65
2023/05/01 13:22:35;;;;;;;12.48;9.55;;;;;;;;;;5093140;28;20501;-67
2023/05/01 13:25:01;;;;;;;13.23;8.98;;;;;;;;;;5089458;28;20016;-68
2023/05/01 13:27:27;;;;;;;13.93;9.95;;;;;;;;;;5093861;28;20024;-68
2023/05/01 13:29:57;;;;;;;11.10;8.65;;;;;;;;;;5091984;28;20705;-68
2023/05/01 13:32:23;;;;;;;11.18;8.82;;;;;;;;;;5092346;28;20356;-68
2023/05/01 13:34:48;;;;;;;10.90;9.38;;;;;;;;;;5086256;28;20021;-68
2023/05/01 13:37:14;;;;;;;12.27;9.40;;;;;;;;;;5085031;28;20024;-67
2023/05/01 13:39:40;;;;;;;9.50;8.35;;;;;;;;;;5092210;28;20054;-67
2023/05/01 13:42:07;;;;;;;10.73;9.38;;;;;;;;;;5092445;28;20036;-68
2023/05/01 13:44:32;;;;;;;19.23;9.80;;;;;;;;;;5074927;28;20043;-67
2023/05/01 13:47:00;;;;;;;12.10;10.15;;;;;;;;;;5082619;28;20054;-67
2023/05/01 13:49:25;;;;;;;16.92;9.63;;;;;;;;;;5085675;28;20040;-67
2023/05/01 13:51:51;;;;;;;10.60;9.10;;;;;;;;;;5048458;28;20089;-68
2023/05/01 13:54:18;;;;;;;10.85;8.45;;;;;;;;;;5044778;28;20028;-67
2023/05/01 13:56:43;;;;;;;17.67;10.80;;;;;;;;;;5046641;28;20027;-68
2023/05/01 13:59:09;;;;;;;21.88;8.75;;;;;;;;;;5036744;28;20052;-68
2023/05/01 14:01:41;;;;;;;11.88;9.85;;;;;;;;;;5038697;28;20020;-68
2023/05/01 14:04:13;;;;;;;19.63;8.75;;;;;;;;;;5036834;28;20062;-66
2023/05/01 14:06:42;;;;;;;9.15;7.50;;;;;;;;;;5036017;28;20140;-65
2023/05/01 14:09:08;;;;;;;8.98;6.88;;;;;;;;;;5077710;28;20102;-66
2023/05/01 14:11:33;;;;;;;10.15;6.85;;;;;;;;;;5092280;28;20114;-65
2023/05/01 14:13:59;;;;;;;7.70;5.87;;;;;;;;;;5090961;28;20024;-64
2023/05/01 14:16:29;;;;;;;9.82;6.65;;;;;;;;;;5087298;28;20293;-66
2023/05/01 14:18:55;;;;;;;8.80;7.05;;;;;;;;;;5092829;28;20059;-66
2023/05/01 14:21:22;;;;;;;14.10;6.60;;;;;;;;;;5087973;28;20032;-66
2023/05/01 14:23:48;;;;;;;8.70;5.97;;;;;;;;;;5091923;28;20118;-64
2023/05/01 14:26:17;;;;;;;8.80;6.32;;;;;;;;;;5091932;28;20056;-65
2023/05/01 14:28:43;;;;;;;9.98;6.00;;;;;;;;;;5084939;28;20059;-66
2023/05/01 14:31:14;;;;;;;7.40;4.68;;;;;;;;;;5052886;28;20024;-65
2023/05/01 14:33:41;;;;;;;8.60;4.68;;;;;;;;;;5086132;28;20598;-66
2023/05/01 14:36:06;;;;;;;8.57;4.10;;;;;;;;;;5091071;28;20099;-65
2023/05/01 14:38:37;;;;;;;7.78;4.05;;;;;;;;;;5090527;28;20111;-65